aviador You're here:

FMCH Decoded Metar

MORONI in COMOROS ISLANDS
Report Time2018-02-20 03:00:00
UTC Time2018-02-20 03:40:19
Flight Rules vfr VFR
Wind080° at 05 kt
W.Decomp.*RWY 02: 2.0 kt HW 4.6 kt RCW
W.Rank080° ranks 4
Current wind is below 080° avg. (5.7)
Visibility9999 m
Phenomena:N/A
Clouds:Few 020 Hf
Expected CloudBase > 1,200 ft AGL from Temp-Dew spread
CeilingNone
Temp25°C (ISA +10)
Dew Point22°C (83% RH)
QNH1010 hPa
Density Alt1,722 ft
Elevation95 ft
Report Wrong Elevation
Raw Report
FMCH 200300Z 08005KT 9999 FEW020 25/22 Q1010 NOSIG=

Extra information for FMCH:More info

Metar Taf Metar & Taf Last 4 Metars F.Rules Stats Wind Profile Meteogram Temp Stats Airport Information Weather charts Add Link Nearby VenuesMetar ALERT Operation Metar Decoded Social comments